createdAt,value
2023-01-10T00:00:27.607Z,100109.13
2023-01-10T00:02:54.308Z,100117.22
2023-01-10T00:05:21.013Z,100120.69
2023-01-10T00:07:47.561Z,100140.78
2023-01-10T00:10:14.114Z,100142.97
2023-01-10T00:13:02.215Z,100161.56
2023-01-10T00:15:33.171Z,100161.88
2023-01-10T00:17:59.940Z,100175.91
2023-01-10T00:20:26.494Z,100172.69
2023-01-10T00:22:56.094Z,100174.03
2023-01-10T00:25:22.601Z,100181.97
2023-01-10T00:27:50.398Z,100184.47
2023-01-10T00:30:17.200Z,100177.53
2023-01-10T00:32:44.861Z,100175.13
2023-01-10T00:35:12.639Z,100180.63
2023-01-10T00:37:40.203Z,100186.56
2023-01-10T00:40:10.911Z,100177.00
2023-01-10T00:42:56.802Z,100183.25
2023-01-10T00:45:25.069Z,100198.06
2023-01-10T00:47:52.227Z,100203.13
2023-01-10T00:50:19.090Z,100213.59
2023-01-10T00:52:45.674Z,100206.97
2023-01-10T00:55:12.337Z,100216.53
2023-01-10T00:57:38.885Z,100226.44
2023-01-10T01:00:08.966Z,100235.22
2023-01-10T01:02:36.499Z,100249.72
2023-01-10T01:05:03.794Z,100253.72
2023-01-10T01:07:30.640Z,100256.69
2023-01-10T01:10:17.426Z,100274.38
2023-01-10T01:12:43.967Z,100280.06
2023-01-10T01:15:10.646Z,100293.84
2023-01-10T01:17:37.233Z,100296.94
2023-01-10T01:20:04.305Z,100295.59
2023-01-10T01:22:30.987Z,100312.03
2023-01-10T01:24:57.495Z,100313.41
2023-01-10T01:27:24.043Z,100313.50
2023-01-10T01:29:50.669Z,100330.44
2023-01-10T01:32:17.416Z,100334.03
2023-01-10T01:34:44.128Z,100343.72
2023-01-10T01:37:10.750Z,100358.31
2023-01-10T01:39:37.454Z,100363.50
2023-01-10T01:42:08.218Z,100373.03
2023-01-10T01:44:39.370Z,100374.03
2023-01-10T01:47:11.579Z,100385.34
2023-01-10T01:49:41.144Z,100381.00
2023-01-10T01:52:15.455Z,100384.31
2023-01-10T01:54:42.411Z,100392.38
2023-01-10T01:57:13.789Z,100398.38
2023-01-10T01:59:45.371Z,100401.47
2023-01-10T02:02:19.389Z,100408.19
2023-01-10T02:04:51.308Z,100403.44
2023-01-10T02:07:18.500Z,100420.38
2023-01-10T02:09:59.610Z,100426.22
2023-01-10T02:12:27.406Z,100434.16
2023-01-10T02:14:54.192Z,100429.69
2023-01-10T02:17:20.759Z,100422.63
2023-01-10T02:20:05.568Z,100436.78
2023-01-10T02:22:47.074Z,100447.59
2023-01-10T02:25:43.637Z,100445.91
2023-01-10T02:28:28.617Z,100454.59
2023-01-10T02:31:20.496Z,100460.09
2023-01-10T02:34:07.511Z,100458.59
2023-01-10T02:36:51.884Z,100455.34
2023-01-10T02:39:43.671Z,100461.44
2023-01-10T02:42:27.607Z,100464.97
2023-01-10T02:45:02.089Z,100477.44
2023-01-10T02:47:36.152Z,100476.53
2023-01-10T02:50:42.366Z,100484.72
2023-01-10T02:53:13.231Z,100485.78
2023-01-10T02:56:11.568Z,100493.19
2023-01-10T02:58:59.877Z,100489.28
2023-01-10T03:01:29.246Z,100490.16
2023-01-10T03:04:21.841Z,100503.16
2023-01-10T03:07:28.131Z,100506.16
2023-01-10T03:10:09.755Z,100505.03
2023-01-10T03:12:51.697Z,100511.59
2023-01-10T03:15:21.018Z,100506.41
2023-01-10T03:17:51.994Z,100520.09
2023-01-10T03:20:21.873Z,100524.72
2023-01-10T03:22:48.522Z,100521.31
2023-01-10T03:25:17.743Z,100536.19
2023-01-10T03:27:52.798Z,100528.69
2023-01-10T03:30:30.030Z,100536.81
2023-01-10T03:32:59.346Z,100543.34
2023-01-10T03:35:44.154Z,100550.97
2023-01-10T03:38:19.837Z,100551.19
2023-01-10T03:40:58.305Z,100550.16
2023-01-10T03:43:55.061Z,100561.78
2023-01-10T03:46:34.128Z,100569.25
2023-01-10T03:49:04.883Z,100571.75
2023-01-10T03:51:32.618Z,100573.44
2023-01-10T03:54:01.387Z,100577.38
2023-01-10T03:56:27.966Z,100585.88
2023-01-10T03:58:54.593Z,100591.16
2023-01-10T04:01:21.245Z,100597.72
2023-01-10T04:03:47.957Z,100600.63
2023-01-10T04:06:14.529Z,100608.09
2023-01-10T04:08:40.985Z,100610.88
2023-01-10T04:11:07.482Z,100614.25
2023-01-10T04:13:34.031Z,100607.00
2023-01-10T04:16:01.016Z,100616.78
2023-01-10T04:18:27.559Z,100612.72
2023-01-10T04:20:54.028Z,100628.22
2023-01-10T04:23:20.564Z,100631.50
2023-01-10T04:25:47.861Z,100636.75
2023-01-10T04:28:14.336Z,100636.44
2023-01-10T04:30:40.880Z,100643.41
2023-01-10T04:33:07.449Z,100645.59
2023-01-10T04:35:33.910Z,100648.38
2023-01-10T04:38:00.812Z,100656.75
2023-01-10T04:40:27.362Z,100664.47
2023-01-10T04:42:53.901Z,100665.72
2023-01-10T04:45:21.762Z,100661.72
2023-01-10T04:47:51.959Z,100663.03
2023-01-10T04:50:18.565Z,100664.34
2023-01-10T04:52:45.132Z,100658.00
2023-01-10T04:55:11.660Z,100657.66
2023-01-10T04:57:38.233Z,100666.84
2023-01-10T05:00:05.614Z,100671.38
2023-01-10T05:02:32.150Z,100671.81
2023-01-10T05:04:58.709Z,100682.41
2023-01-10T05:07:25.279Z,100693.44
2023-01-10T05:09:51.809Z,100693.75
2023-01-10T05:12:18.452Z,100697.44
2023-01-10T05:14:44.980Z,100695.31
2023-01-10T05:17:11.504Z,100704.88
2023-01-10T05:19:38.119Z,100713.59
2023-01-10T05:22:04.607Z,100711.59
2023-01-10T05:24:31.078Z,100724.28
2023-01-10T05:26:57.603Z,100726.13
2023-01-10T05:29:24.135Z,100718.19
2023-01-10T05:31:51.931Z,100729.53
2023-01-10T05:34:18.452Z,100719.59
2023-01-10T05:36:44.964Z,100735.41
2023-01-10T05:39:12.017Z,100740.84
2023-01-10T05:41:38.564Z,100744.78
2023-01-10T05:44:05.232Z,100746.00
2023-01-10T05:46:31.768Z,100758.28
2023-01-10T05:48:58.245Z,100761.88
2023-01-10T05:51:24.935Z,100763.88
2023-01-10T05:53:51.626Z,100766.84
2023-01-10T05:56:18.669Z,100775.22
2023-01-10T05:58:47.279Z,100776.28
2023-01-10T06:01:16.137Z,100787.94
2023-01-10T06:03:42.954Z,100785.13
2023-01-10T06:06:09.513Z,100779.97
2023-01-10T06:08:37.023Z,100797.03
2023-01-10T06:11:07.383Z,100803.13
2023-01-10T06:13:34.139Z,100803.28
2023-01-10T06:16:00.821Z,100814.41
2023-01-10T06:18:27.387Z,100812.19
2023-01-10T06:20:53.955Z,100818.41
2023-01-10T06:23:21.555Z,100832.22
2023-01-10T06:25:48.087Z,100833.78
2023-01-10T06:28:14.770Z,100840.94
2023-01-10T06:30:43.224Z,100838.50
2023-01-10T06:33:11.465Z,100836.63
2023-01-10T06:35:39.266Z,100838.66
2023-01-10T06:38:05.754Z,100848.91
2023-01-10T06:40:32.281Z,100850.28
2023-01-10T06:42:59.274Z,100847.22
2023-01-10T06:45:25.949Z,100855.13
2023-01-10T06:47:52.407Z,100861.16
2023-01-10T06:50:19.101Z,100864.63
2023-01-10T06:52:45.628Z,100868.59
2023-01-10T06:55:12.397Z,100877.19
2023-01-10T06:57:38.880Z,100891.75
2023-01-10T07:00:07.459Z,100896.06
2023-01-10T07:02:34.010Z,100898.38
2023-01-10T07:05:00.606Z,100900.44
2023-01-10T07:07:27.094Z,100892.22
2023-01-10T07:09:53.658Z,100886.00
2023-01-10T07:12:20.147Z,100886.31
2023-01-10T07:14:46.724Z,100884.28
2023-01-10T07:17:13.214Z,100889.59
2023-01-10T07:19:39.733Z,100892.34
2023-01-10T07:22:06.234Z,100900.41
2023-01-10T07:24:32.924Z,100904.56
2023-01-10T07:26:59.461Z,100922.44
2023-01-10T07:29:26.047Z,100925.25
2023-01-10T07:31:52.591Z,100933.28
2023-01-10T07:34:19.157Z,100938.53
2023-01-10T07:36:45.738Z,100950.03
2023-01-10T07:39:12.323Z,100952.94
2023-01-10T07:41:38.818Z,100949.81
2023-01-10T07:44:05.486Z,100948.72
2023-01-10T07:46:32.083Z,100943.16
2023-01-10T07:48:58.588Z,100949.47
2023-01-10T07:51:25.095Z,100970.59
2023-01-10T07:53:51.795Z,100971.88
2023-01-10T07:56:18.283Z,100969.47
2023-01-10T07:58:46.202Z,100971.13
2023-01-10T08:01:12.791Z,100984.78
2023-01-10T08:03:39.625Z,100971.94
2023-01-10T08:06:10.183Z,100967.50
2023-01-10T08:08:37.144Z,100975.88
2023-01-10T08:11:04.252Z,100979.22
2023-01-10T08:13:31.587Z,100975.75
2023-01-10T08:15:58.570Z,100968.59
2023-01-10T08:18:26.073Z,100974.78
2023-01-10T08:20:53.826Z,100977.16
2023-01-10T08:23:20.829Z,100982.75
2023-01-10T08:25:47.830Z,100988.22
2023-01-10T08:28:15.050Z,101000.59
2023-01-10T08:30:42.092Z,100999.53
2023-01-10T08:33:10.683Z,101002.28
2023-01-10T08:35:42.353Z,101000.94
2023-01-10T08:38:09.992Z,101004.38
2023-01-10T08:40:36.599Z,101009.28
2023-01-10T08:43:06.250Z,101010.59
2023-01-10T08:45:33.702Z,101020.88
2023-01-10T08:48:00.491Z,101017.09
2023-01-10T08:50:27.246Z,101025.19
2023-01-10T08:52:53.809Z,101025.88
2023-01-10T08:55:20.619Z,101019.13
2023-01-10T08:57:47.191Z,101031.81
2023-01-10T09:00:14.319Z,101021.03
2023-01-10T09:02:41.069Z,101031.06
2023-01-10T09:05:21.976Z,101030.34
2023-01-10T09:07:53.362Z,101036.81
2023-01-10T09:10:21.261Z,101033.72
2023-01-10T09:12:56.867Z,101028.09
2023-01-10T09:15:26.547Z,101034.66
2023-01-10T09:17:55.037Z,101042.34
2023-01-10T09:20:21.771Z,101035.06
2023-01-10T09:22:48.526Z,101047.00
2023-01-10T09:25:15.183Z,101044.66
2023-01-10T09:27:41.756Z,101052.13
2023-01-10T09:30:09.064Z,101056.06
2023-01-10T09:32:35.946Z,101060.63
2023-01-10T09:35:02.749Z,101056.97
2023-01-10T09:37:29.288Z,101053.84
2023-01-10T09:39:55.830Z,101052.38
2023-01-10T09:42:47.110Z,101050.84
2023-01-10T09:45:20.320Z,101060.06
2023-01-10T09:48:03.771Z,101059.19
2023-01-10T09:51:01.676Z,101071.66
2023-01-10T09:53:32.160Z,101075.81
2023-01-10T09:56:00.887Z,101071.91
2023-01-10T09:58:31.531Z,101074.00
2023-01-10T10:01:06.087Z,101082.19
2023-01-10T10:03:41.865Z,101086.88
2023-01-10T10:06:13.042Z,101076.72
2023-01-10T10:08:44.911Z,101081.63
2023-01-10T10:11:26.661Z,101089.13
2023-01-10T10:14:07.302Z,101080.84
2023-01-10T10:17:04.546Z,101083.50
2023-01-10T10:19:43.153Z,101083.81
2023-01-10T10:22:21.005Z,101091.13
2023-01-10T10:24:47.500Z,101082.69
2023-01-10T10:27:33.905Z,101084.03
2023-01-10T10:30:29.192Z,101070.44
2023-01-10T10:33:26.275Z,101081.69
2023-01-10T10:36:18.091Z,101086.81
2023-01-10T10:38:47.695Z,101082.97
2023-01-10T10:41:38.694Z,101084.59
2023-01-10T10:44:39.171Z,101088.59
2023-01-10T10:47:14.767Z,101081.06
2023-01-10T10:49:47.394Z,101080.88
2023-01-10T10:52:24.075Z,101087.56
2023-01-10T10:54:51.968Z,101085.50
2023-01-10T10:57:21.519Z,101086.41
2023-01-10T10:59:48.866Z,101092.91
2023-01-10T11:02:30.921Z,101085.53
2023-01-10T11:05:06.521Z,101080.69
2023-01-10T11:07:35.406Z,101089.25
2023-01-10T11:10:14.560Z,101085.19
2023-01-10T11:12:47.931Z,101080.16
2023-01-10T11:15:41.313Z,101090.38
2023-01-10T11:18:11.792Z,101095.56
2023-01-10T11:20:50.942Z,101097.44
2023-01-10T11:23:50.101Z,101088.13
2023-01-10T11:26:36.946Z,101081.69
2023-01-10T11:29:15.313Z,101073.78
2023-01-10T11:31:42.227Z,101077.78
2023-01-10T11:34:19.449Z,101080.78
2023-01-10T11:37:19.753Z,101085.44
2023-01-10T11:39:46.579Z,101086.28
2023-01-10T11:42:25.080Z,101083.13
2023-01-10T11:44:51.685Z,101076.00
2023-01-10T11:47:20.815Z,101073.94
2023-01-10T11:49:49.955Z,101066.34
2023-01-10T11:52:25.889Z,101050.78
2023-01-10T11:55:15.023Z,101060.28
2023-01-10T11:57:42.490Z,101064.84
2023-01-10T12:00:10.877Z,101075.63
2023-01-10T12:02:42.558Z,101061.22
2023-01-10T12:05:18.650Z,101058.97
2023-01-10T12:08:09.415Z,101063.50
2023-01-10T12:10:36.331Z,101054.25
2023-01-10T12:13:16.291Z,101055.06
2023-01-10T12:15:43.115Z,101057.06
2023-01-10T12:18:12.001Z,101050.63
2023-01-10T12:20:45.719Z,101051.91
2023-01-10T12:23:19.810Z,101043.22
2023-01-10T12:25:47.867Z,101040.81
2023-01-10T12:28:27.112Z,101031.25
2023-01-10T12:30:57.586Z,101034.28
2023-01-10T12:33:34.244Z,101031.00
2023-01-10T12:36:23.499Z,101037.31
2023-01-10T12:39:18.430Z,101036.88
2023-01-10T12:42:27.209Z,101034.91
2023-01-10T12:45:09.063Z,101029.75
2023-01-10T12:47:57.582Z,101040.91
2023-01-10T12:50:36.952Z,101036.09
2023-01-10T12:53:10.787Z,101044.28
2023-01-10T12:55:45.269Z,101041.13
2023-01-10T12:58:21.710Z,101045.03
2023-01-10T13:00:59.617Z,101059.94
2023-01-10T13:03:33.404Z,101040.94
2023-01-10T13:06:01.476Z,101043.81
2023-01-10T13:08:32.593Z,101044.41
2023-01-10T13:11:00.806Z,101039.56
2023-01-10T13:13:42.291Z,101049.84
2023-01-10T13:16:28.487Z,101048.59
2023-01-10T13:19:09.950Z,101049.34
2023-01-10T13:21:39.238Z,101044.59
2023-01-10T13:24:14.804Z,101038.81
2023-01-10T13:27:03.106Z,101040.41
2023-01-10T13:29:37.893Z,101047.34
2023-01-10T13:32:22.005Z,101045.63
2023-01-10T13:34:49.016Z,101049.84
2023-01-10T13:37:23.975Z,101049.06
2023-01-10T13:39:59.486Z,101051.50
2023-01-10T13:42:52.331Z,101039.56
2023-01-10T13:45:20.317Z,101048.59
2023-01-10T13:48:22.904Z,101038.88
2023-01-10T13:50:51.509Z,101035.75
2023-01-10T13:53:18.041Z,101046.91
2023-01-10T13:55:53.342Z,101037.38
2023-01-10T13:58:41.834Z,101030.53
2023-01-10T14:01:45.457Z,101035.63
2023-01-10T14:04:25.558Z,101029.50
2023-01-10T14:06:58.487Z,101033.22
2023-01-10T14:09:25.013Z,101026.22
2023-01-10T14:11:54.649Z,101022.38
2023-01-10T14:14:41.376Z,101017.03
2023-01-10T14:17:36.244Z,101012.84
2023-01-10T14:20:07.978Z,101016.00
2023-01-10T14:22:38.920Z,101014.91
2023-01-10T14:25:15.900Z,101011.94
2023-01-10T14:27:48.486Z,101007.13
2023-01-10T14:30:22.033Z,101004.31
2023-01-10T14:32:52.305Z,101000.75
2023-01-10T14:35:22.201Z,100994.25
2023-01-10T14:37:56.410Z,100998.00
2023-01-10T14:40:34.854Z,101000.78
2023-01-10T14:43:06.597Z,100994.34
2023-01-10T14:45:57.741Z,100993.03
2023-01-10T14:48:32.759Z,100992.03
2023-01-10T14:51:23.604Z,100986.47
2023-01-10T14:53:58.559Z,100985.84
2023-01-10T14:56:28.214Z,100982.13
2023-01-10T14:58:54.937Z,100983.03
2023-01-10T15:01:28.107Z,100976.66
2023-01-10T15:03:55.172Z,100983.22
2023-01-10T15:06:21.747Z,100979.19
2023-01-10T15:08:59.301Z,100973.91
2023-01-10T15:11:27.401Z,100967.69
2023-01-10T15:13:59.887Z,100970.03
2023-01-10T15:16:28.599Z,100970.78
2023-01-10T15:18:56.893Z,100973.31
2023-01-10T15:21:25.602Z,100982.47
2023-01-10T15:23:52.471Z,100975.63
2023-01-10T15:26:37.061Z,100974.22
2023-01-10T15:29:14.502Z,100978.88
2023-01-10T15:31:41.939Z,100976.38
2023-01-10T15:34:17.234Z,100979.03
2023-01-10T15:36:53.547Z,100984.47
2023-01-10T15:39:22.318Z,100977.97
2023-01-10T15:41:54.566Z,100967.41
2023-01-10T15:44:23.465Z,100963.34
2023-01-10T15:46:57.459Z,100964.75
2023-01-10T15:49:25.353Z,100964.59
2023-01-10T15:51:52.551Z,100954.53
2023-01-10T15:54:19.340Z,100953.56
2023-01-10T15:57:04.367Z,100954.81
2023-01-10T15:59:37.099Z,100953.75
2023-01-10T16:02:25.647Z,100959.13
2023-01-10T16:04:56.097Z,100953.41
2023-01-10T16:07:25.145Z,100943.94
2023-01-10T16:09:58.139Z,100941.47
2023-01-10T16:12:45.832Z,100934.63
2023-01-10T16:15:25.909Z,100934.16
2023-01-10T16:17:52.881Z,100936.81
2023-01-10T16:20:27.045Z,100927.81
2023-01-10T16:22:54.074Z,100926.41
2023-01-10T16:25:27.578Z,100919.88
2023-01-10T16:27:56.218Z,100922.66
2023-01-10T16:30:25.597Z,100925.00
2023-01-10T16:32:52.947Z,100918.63
2023-01-10T16:35:20.273Z,100922.06
2023-01-10T16:37:47.796Z,100917.69
2023-01-10T16:40:22.034Z,100917.53
2023-01-10T16:43:07.476Z,100916.28
2023-01-10T16:45:34.026Z,100919.72
2023-01-10T16:48:01.233Z,100915.06
2023-01-10T16:50:27.852Z,100905.13
2023-01-10T16:52:54.564Z,100902.81
2023-01-10T16:55:26.639Z,100895.34
2023-01-10T16:57:53.272Z,100895.50
2023-01-10T17:00:20.398Z,100892.72
2023-01-10T17:02:47.140Z,100894.88
2023-01-10T17:05:16.382Z,100888.03
2023-01-10T17:07:43.209Z,100886.63
2023-01-10T17:10:10.283Z,100872.81
2023-01-10T17:12:38.385Z,100876.72
2023-01-10T17:15:08.184Z,100879.03
2023-01-10T17:17:35.134Z,100871.91
2023-01-10T17:20:01.823Z,100863.84
2023-01-10T17:22:28.623Z,100861.97
2023-01-10T17:24:55.135Z,100866.47
2023-01-10T17:27:21.698Z,100855.75
2023-01-10T17:29:48.255Z,100851.41
2023-01-10T17:32:14.785Z,100853.59
2023-01-10T17:34:41.346Z,100837.28
2023-01-10T17:37:07.931Z,100831.25
2023-01-10T17:39:37.598Z,100825.03
2023-01-10T17:42:05.672Z,100828.28
2023-01-10T17:44:32.271Z,100830.75
2023-01-10T17:46:58.925Z,100830.47
2023-01-10T17:49:25.464Z,100827.47
2023-01-10T17:51:53.532Z,100826.09
2023-01-10T17:54:21.118Z,100817.25
2023-01-10T17:56:47.994Z,100818.50
2023-01-10T17:59:14.614Z,100839.16
2023-01-10T18:01:42.214Z,100823.97
2023-01-10T18:04:08.860Z,100820.06
2023-01-10T18:06:35.428Z,100818.31
2023-01-10T18:09:02.145Z,100817.41
2023-01-10T18:11:30.576Z,100811.84
2023-01-10T18:13:57.489Z,100807.19
2023-01-10T18:16:26.959Z,100802.06
2023-01-10T18:18:53.727Z,100803.75
2023-01-10T18:21:20.273Z,100806.56
2023-01-10T18:23:47.655Z,100815.06
2023-01-10T18:26:14.551Z,100825.03
2023-01-10T18:28:43.318Z,100822.38
2023-01-10T18:31:17.825Z,100821.09
2023-01-10T18:33:45.851Z,100825.78
2023-01-10T18:36:15.334Z,100813.84
2023-01-10T18:38:42.776Z,100818.97
2023-01-10T18:41:09.407Z,100819.91
2023-01-10T18:43:36.087Z,100823.13
2023-01-10T18:46:09.599Z,100817.06
2023-01-10T18:48:36.318Z,100808.69
2023-01-10T18:51:03.955Z,100811.34
2023-01-10T18:53:31.416Z,100818.13
2023-01-10T18:56:04.406Z,100818.22
2023-01-10T18:58:36.452Z,100826.25
2023-01-10T19:01:17.941Z,100821.16
2023-01-10T19:03:45.031Z,100828.59
2023-01-10T19:06:15.875Z,100830.94
2023-01-10T19:08:43.759Z,100828.28
2023-01-10T19:11:14.920Z,100830.59
2023-01-10T19:13:42.148Z,100837.28
2023-01-10T19:16:17.203Z,100822.38
2023-01-10T19:18:47.804Z,100827.97
2023-01-10T19:21:17.267Z,100816.66
2023-01-10T19:23:45.725Z,100811.97
2023-01-10T19:26:13.324Z,100810.44
2023-01-10T19:28:40.005Z,100812.16
2023-01-10T19:31:06.702Z,100818.03
2023-01-10T19:33:34.627Z,100821.91
2023-01-10T19:36:06.366Z,100817.25
2023-01-10T19:38:33.127Z,100816.94
2023-01-10T19:40:59.794Z,100813.84
2023-01-10T19:43:26.331Z,100808.84
2023-01-10T19:45:53.880Z,100811.75
2023-01-10T19:48:21.986Z,100803.69
2023-01-10T19:50:48.715Z,100799.66
2023-01-10T19:53:15.253Z,100806.91
2023-01-10T19:55:41.976Z,100803.06
2023-01-10T19:58:11.849Z,100809.50
2023-01-10T20:00:38.496Z,100809.41
2023-01-10T20:03:07.617Z,100815.69
2023-01-10T20:05:35.388Z,100809.50
2023-01-10T20:08:03.348Z,100802.16
2023-01-10T20:10:29.866Z,100796.13
2023-01-10T20:12:56.438Z,100809.00
2023-01-10T20:15:23.059Z,100787.00
2023-01-10T20:18:00.704Z,100795.31
2023-01-10T20:20:27.267Z,100779.84
2023-01-10T20:22:54.500Z,100777.72
2023-01-10T20:25:21.047Z,100764.63
2023-01-10T20:27:47.605Z,100763.09
2023-01-10T20:30:14.391Z,100753.72
2023-01-10T20:32:41.358Z,100751.31
2023-01-10T20:35:09.222Z,100745.72
2023-01-10T20:37:35.888Z,100738.59
2023-01-10T20:40:04.103Z,100743.50
2023-01-10T20:42:32.457Z,100740.66
2023-01-10T20:44:58.964Z,100740.38
2023-01-10T20:47:26.724Z,100730.59
2023-01-10T20:49:53.302Z,100740.44
2023-01-10T20:52:19.863Z,100741.25
2023-01-10T20:54:46.352Z,100744.44
2023-01-10T20:57:12.877Z,100741.63
2023-01-10T20:59:39.429Z,100737.84
2023-01-10T21:02:06.011Z,100733.13
2023-01-10T21:04:32.996Z,100724.38
2023-01-10T21:06:59.632Z,100715.91
2023-01-10T21:09:26.180Z,100720.25
2023-01-10T21:12:04.594Z,100715.00
2023-01-10T21:14:39.301Z,100716.84
2023-01-10T21:17:05.904Z,100713.06
2023-01-10T21:19:32.476Z,100718.31
2023-01-10T21:21:58.972Z,100721.84
2023-01-10T21:24:25.693Z,100710.78
2023-01-10T21:26:52.168Z,100707.28
2023-01-10T21:29:18.793Z,100707.41
2023-01-10T21:31:45.361Z,100704.28
2023-01-10T21:34:12.030Z,100700.66
2023-01-10T21:36:38.784Z,100703.22
2023-01-10T21:39:05.425Z,100693.91
2023-01-10T21:41:50.560Z,100689.75
2023-01-10T21:44:17.088Z,100691.38
2023-01-10T21:46:46.613Z,100693.09
2023-01-10T21:49:13.840Z,100688.28
2023-01-10T21:51:40.831Z,100681.22
2023-01-10T21:54:07.705Z,100684.03
2023-01-10T21:56:34.312Z,100679.69
2023-01-10T21:59:00.926Z,100679.22
2023-01-10T22:01:27.463Z,100671.78
2023-01-10T22:03:54.027Z,100674.88
2023-01-10T22:06:20.671Z,100671.28
2023-01-10T22:08:47.345Z,100668.19
2023-01-10T22:11:13.834Z,100660.63
2023-01-10T22:13:40.295Z,100656.44
2023-01-10T22:16:07.256Z,100662.78
2023-01-10T22:18:33.945Z,100650.25
2023-01-10T22:21:00.511Z,100648.19
2023-01-10T22:23:28.832Z,100646.69
2023-01-10T22:26:08.343Z,100650.09
2023-01-10T22:28:34.975Z,100637.84
2023-01-10T22:31:02.052Z,100649.16
2023-01-10T22:33:31.007Z,100650.25
2023-01-10T22:36:06.203Z,100649.16
2023-01-10T22:38:33.940Z,100640.94
2023-01-10T22:41:11.872Z,100637.97
2023-01-10T22:43:38.476Z,100640.97
2023-01-10T22:46:05.920Z,100631.81
2023-01-10T22:48:32.810Z,100628.69
2023-01-10T22:51:01.170Z,100627.63
2023-01-10T22:53:28.405Z,100633.97
2023-01-10T22:55:54.970Z,100624.66
2023-01-10T22:58:21.602Z,100628.06
2023-01-10T23:00:48.960Z,100629.94
2023-01-10T23:03:15.676Z,100631.94
2023-01-10T23:05:42.417Z,100624.50
2023-01-10T23:08:08.966Z,100626.69
2023-01-10T23:10:35.734Z,100612.91
2023-01-10T23:13:02.408Z,100623.75
2023-01-10T23:15:29.177Z,100624.22
2023-01-10T23:17:55.746Z,100624.31
2023-01-10T23:20:22.296Z,100605.28
2023-01-10T23:22:48.927Z,100599.53
2023-01-10T23:25:15.504Z,100591.78
2023-01-10T23:27:42.170Z,100590.25
2023-01-10T23:30:10.578Z,100587.78
2023-01-10T23:32:37.092Z,100580.75
2023-01-10T23:35:03.943Z,100579.53
2023-01-10T23:37:30.561Z,100584.84
2023-01-10T23:39:59.910Z,100569.44
2023-01-10T23:42:26.457Z,100572.22
2023-01-10T23:44:53.023Z,100568.16
2023-01-10T23:47:19.548Z,100570.06
2023-01-10T23:49:46.068Z,100560.09
2023-01-10T23:52:14.779Z,100569.91
2023-01-10T23:54:41.280Z,100570.38
2023-01-10T23:57:07.863Z,100560.44
2023-01-10T23:59:34.348Z,100559.66
